WordPress database error: []
INSERT INTO `taf` (`ID`, `ICAO`, `datetime`, `reading`, `dayfrom`, `hourfrom`, `dayto`, `hourto`, `direction`, `direction_varmin`, `direction_varmax`, `windspeed`, `windspeed_gusts`, `created`) VALUES (NULL, 'EDDF', '2017-11-21 05:00:00', 'EDDF 210500Z 2106/2212 21013KT 9999 SCT012 BKN015 TEMPO 2106/2114 21015G25KT BKN012 PROB30 TEMPO 2109/2113 4500 RADZ TEMPO 2114/2210 BKN012 BECMG 2118/2120 20008KT BECMG 2211/2212 SCT020', '21', '6', '22', '12', '210', '', '', '13', '', '2017-11-21 06:25:01')

TAF RAW:EDDF 210500Z 2106/2212 21013KT 9999 SCT012 BKN015 TEMPO 2106/2114 21015G25KT BKN012 PROB30 TEMPO 2109/2113 4500 RADZ TEMPO 2114/2210 BKN012 BECMG 2118/2120 20008KT BECMG 2211/2212 SCT020
-----------------------------------------------------------------------------------------------------------------------------------------------------------------------------
'datetime':2017-11-21 05:00:00
'ICAO':EDDF
'reading':
'dayfrom':21
'hourfrom':6
'dayto':22
'hourto':12
'direction':210
'direction_varmin':
'direction_varmax':
'windspeed':13
'windspeed_gusts':
'created':2017-11-21 06:25:01